sensor_id;sensor_type;location;lat;lon;timestamp;P1;durP1;ratioP1;P2;durP2;ratioP2
76167;SDS011;64927;48.214;16.378;2022-12-18T00:00:41;14.18;;;8.30;;
76167;SDS011;64927;48.214;16.378;2022-12-18T00:03:08;15.63;;;7.88;;
76167;SDS011;64927;48.214;16.378;2022-12-18T00:05:34;13.45;;;7.40;;
76167;SDS011;64927;48.214;16.378;2022-12-18T00:08:00;14.32;;;9.00;;
76167;SDS011;64927;48.214;16.378;2022-12-18T00:10:27;14.15;;;7.97;;
76167;SDS011;64927;48.214;16.378;2022-12-18T00:12:53;15.32;;;8.32;;
76167;SDS011;64927;48.214;16.378;2022-12-18T00:15:19;10.45;;;7.10;;
76167;SDS011;64927;48.214;16.378;2022-12-18T00:17:45;11.50;;;7.32;;
76167;SDS011;64927;48.214;16.378;2022-12-18T00:20:10;11.18;;;6.53;;
76167;SDS011;64927;48.214;16.378;2022-12-18T00:22:39;17.08;;;8.65;;
76167;SDS011;64927;48.214;16.378;2022-12-18T00:25:04;15.18;;;7.45;;
76167;SDS011;64927;48.214;16.378;2022-12-18T00:27:32;10.60;;;6.32;;
76167;SDS011;64927;48.214;16.378;2022-12-18T00:29:58;11.88;;;7.45;;
76167;SDS011;64927;48.214;16.378;2022-12-18T00:32:26;12.02;;;7.00;;
76167;SDS011;64927;48.214;16.378;2022-12-18T00:34:52;11.43;;;6.57;;
76167;SDS011;64927;48.214;16.378;2022-12-18T00:37:17;12.00;;;7.55;;
76167;SDS011;64927;48.214;16.378;2022-12-18T00:39:43;11.73;;;7.55;;
76167;SDS011;64927;48.214;16.378;2022-12-18T00:42:09;15.27;;;7.72;;
76167;SDS011;64927;48.214;16.378;2022-12-18T00:44:54;13.43;;;9.37;;
76167;SDS011;64927;48.214;16.378;2022-12-18T00:47:22;13.52;;;7.95;;
76167;SDS011;64927;48.214;16.378;2022-12-18T00:49:48;14.50;;;9.07;;
76167;SDS011;64927;48.214;16.378;2022-12-18T00:52:13;13.40;;;8.70;;
76167;SDS011;64927;48.214;16.378;2022-12-18T00:54:39;13.88;;;8.30;;
76167;SDS011;64927;48.214;16.378;2022-12-18T00:57:04;15.63;;;8.98;;
76167;SDS011;64927;48.214;16.378;2022-12-18T00:59:30;15.13;;;10.50;;
76167;SDS011;64927;48.214;16.378;2022-12-18T01:01:58;15.77;;;10.25;;
76167;SDS011;64927;48.214;16.378;2022-12-18T01:04:23;15.90;;;9.43;;
76167;SDS011;64927;48.214;16.378;2022-12-18T01:06:49;16.80;;;9.55;;
76167;SDS011;64927;48.214;16.378;2022-12-18T01:09:15;17.38;;;10.65;;
76167;SDS011;64927;48.214;16.378;2022-12-18T01:11:41;16.60;;;9.40;;
76167;SDS011;64927;48.214;16.378;2022-12-18T01:14:08;13.70;;;9.93;;
76167;SDS011;64927;48.214;16.378;2022-12-18T01:16:34;17.40;;;10.13;;
76167;SDS011;64927;48.214;16.378;2022-12-18T01:19:00;16.30;;;10.30;;
76167;SDS011;64927;48.214;16.378;2022-12-18T01:21:26;18.67;;;12.10;;
76167;SDS011;64927;48.214;16.378;2022-12-18T01:23:52;19.17;;;11.93;;
76167;SDS011;64927;48.214;16.378;2022-12-18T01:26:24;20.30;;;12.95;;
76167;SDS011;64927;48.214;16.378;2022-12-18T01:28:50;22.90;;;12.93;;
76167;SDS011;64927;48.214;16.378;2022-12-18T01:33:44;23.13;;;13.18;;
76167;SDS011;64927;48.214;16.378;2022-12-18T01:36:20;24.52;;;13.75;;
76167;SDS011;64927;48.214;16.378;2022-12-18T01:38:53;25.15;;;15.15;;
76167;SDS011;64927;48.214;16.378;2022-12-18T01:41:20;22.00;;;13.35;;
76167;SDS011;64927;48.214;16.378;2022-12-18T01:43:55;23.60;;;13.95;;
76167;SDS011;64927;48.214;16.378;2022-12-18T01:46:22;23.33;;;14.65;;
76167;SDS011;64927;48.214;16.378;2022-12-18T01:48:52;23.85;;;13.80;;
76167;SDS011;64927;48.214;16.378;2022-12-18T01:51:21;21.50;;;13.63;;
76167;SDS011;64927;48.214;16.378;2022-12-18T01:53:47;22.58;;;13.90;;
76167;SDS011;64927;48.214;16.378;2022-12-18T01:56:17;22.17;;;14.05;;
76167;SDS011;64927;48.214;16.378;2022-12-18T01:58:59;28.88;;;14.57;;
76167;SDS011;64927;48.214;16.378;2022-12-18T02:01:37;26.60;;;13.90;;
76167;SDS011;64927;48.214;16.378;2022-12-18T02:07:04;24.75;;;14.32;;
76167;SDS011;64927;48.214;16.378;2022-12-18T02:09:43;22.83;;;14.60;;
76167;SDS011;64927;48.214;16.378;2022-12-18T02:12:16;24.35;;;14.60;;
76167;SDS011;64927;48.214;16.378;2022-12-18T02:14:50;31.15;;;16.10;;
76167;SDS011;64927;48.214;16.378;2022-12-18T02:17:36;25.05;;;15.63;;
76167;SDS011;64927;48.214;16.378;2022-12-18T02:28:44;27.95;;;15.85;;
76167;SDS011;64927;48.214;16.378;2022-12-18T02:31:23;29.05;;;17.55;;
76167;SDS011;64927;48.214;16.378;2022-12-18T02:33:55;30.52;;;17.45;;
76167;SDS011;64927;48.214;16.378;2022-12-18T02:36:24;29.65;;;17.27;;
76167;SDS011;64927;48.214;16.378;2022-12-18T02:38:52;25.95;;;15.05;;
76167;SDS011;64927;48.214;16.378;2022-12-18T02:41:19;29.33;;;16.73;;
76167;SDS011;64927;48.214;16.378;2022-12-18T02:43:58;29.42;;;15.88;;
76167;SDS011;64927;48.214;16.378;2022-12-18T02:51:46;29.88;;;17.60;;
76167;SDS011;64927;48.214;16.378;2022-12-18T02:57:14;29.35;;;17.55;;
76167;SDS011;64927;48.214;16.378;2022-12-18T03:00:12;29.73;;;16.73;;
76167;SDS011;64927;48.214;16.378;2022-12-18T03:05:13;35.63;;;18.63;;
76167;SDS011;64927;48.214;16.378;2022-12-18T03:07:53;30.02;;;17.63;;
76167;SDS011;64927;48.214;16.378;2022-12-18T03:10:26;31.58;;;16.40;;
76167;SDS011;64927;48.214;16.378;2022-12-18T03:12:58;29.95;;;17.08;;
76167;SDS011;64927;48.214;16.378;2022-12-18T03:15:29;27.90;;;17.30;;
76167;SDS011;64927;48.214;16.378;2022-12-18T03:18:05;31.33;;;17.05;;
76167;SDS011;64927;48.214;16.378;2022-12-18T03:20:39;30.52;;;17.65;;
76167;SDS011;64927;48.214;16.378;2022-12-18T03:23:11;29.77;;;16.75;;
76167;SDS011;64927;48.214;16.378;2022-12-18T03:25:42;33.33;;;18.80;;
76167;SDS011;64927;48.214;16.378;2022-12-18T03:28:12;34.88;;;18.33;;
76167;SDS011;64927;48.214;16.378;2022-12-18T03:30:41;28.52;;;16.75;;
76167;SDS011;64927;48.214;16.378;2022-12-18T03:33:15;30.50;;;17.95;;
76167;SDS011;64927;48.214;16.378;2022-12-18T03:35:47;31.30;;;18.60;;
76167;SDS011;64927;48.214;16.378;2022-12-18T03:38:15;28.30;;;16.90;;
76167;SDS011;64927;48.214;16.378;2022-12-18T03:40:51;30.20;;;17.48;;
76167;SDS011;64927;48.214;16.378;2022-12-18T03:46:39;31.35;;;18.02;;
76167;SDS011;64927;48.214;16.378;2022-12-18T03:48:58;37.22;;;19.02;;
76167;SDS011;64927;48.214;16.378;2022-12-18T03:54:06;36.55;;;19.10;;
76167;SDS011;64927;48.214;16.378;2022-12-18T03:56:39;39.22;;;19.60;;
76167;SDS011;64927;48.214;16.378;2022-12-18T03:59:09;31.17;;;18.52;;
76167;SDS011;64927;48.214;16.378;2022-12-18T04:01:38;43.17;;;21.90;;
76167;SDS011;64927;48.214;16.378;2022-12-18T04:04:07;37.47;;;19.83;;
76167;SDS011;64927;48.214;16.378;2022-12-18T04:06:34;46.35;;;23.63;;
76167;SDS011;64927;48.214;16.378;2022-12-18T04:09:01;42.80;;;23.50;;
76167;SDS011;64927;48.214;16.378;2022-12-18T04:11:27;34.35;;;19.10;;
76167;SDS011;64927;48.214;16.378;2022-12-18T04:13:55;35.20;;;20.48;;
76167;SDS011;64927;48.214;16.378;2022-12-18T04:16:25;35.42;;;19.27;;
76167;SDS011;64927;48.214;16.378;2022-12-18T04:18:52;43.70;;;19.40;;
76167;SDS011;64927;48.214;16.378;2022-12-18T04:21:20;35.55;;;19.33;;
76167;SDS011;64927;48.214;16.378;2022-12-18T04:23:47;38.65;;;21.35;;
76167;SDS011;64927;48.214;16.378;2022-12-18T04:26:15;30.92;;;17.50;;
76167;SDS011;64927;48.214;16.378;2022-12-18T04:28:41;35.42;;;18.25;;
76167;SDS011;64927;48.214;16.378;2022-12-18T04:31:07;35.40;;;19.00;;
76167;SDS011;64927;48.214;16.378;2022-12-18T04:33:35;35.53;;;19.05;;
76167;SDS011;64927;48.214;16.378;2022-12-18T04:36:03;37.13;;;20.23;;
76167;SDS011;64927;48.214;16.378;2022-12-18T04:38:29;37.03;;;19.55;;
76167;SDS011;64927;48.214;16.378;2022-12-18T04:40:55;34.53;;;19.38;;
76167;SDS011;64927;48.214;16.378;2022-12-18T04:43:20;31.33;;;18.30;;
76167;SDS011;64927;48.214;16.378;2022-12-18T04:45:48;35.03;;;18.92;;
76167;SDS011;64927;48.214;16.378;2022-12-18T04:48:19;38.05;;;20.35;;
76167;SDS011;64927;48.214;16.378;2022-12-18T04:50:46;40.08;;;20.05;;
76167;SDS011;64927;48.214;16.378;2022-12-18T04:53:12;46.47;;;24.13;;
76167;SDS011;64927;48.214;16.378;2022-12-18T04:55:37;55.47;;;27.10;;
76167;SDS011;64927;48.214;16.378;2022-12-18T04:58:03;37.33;;;19.52;;
76167;SDS011;64927;48.214;16.378;2022-12-18T05:00:31;36.88;;;19.75;;
76167;SDS011;64927;48.214;16.378;2022-12-18T05:03:04;43.55;;;21.20;;
76167;SDS011;64927;48.214;16.378;2022-12-18T05:05:29;36.30;;;19.35;;
76167;SDS011;64927;48.214;16.378;2022-12-18T05:07:55;33.95;;;18.33;;
76167;SDS011;64927;48.214;16.378;2022-12-18T05:10:21;38.72;;;19.67;;
76167;SDS011;64927;48.214;16.378;2022-12-18T05:12:46;34.20;;;18.13;;
76167;SDS011;64927;48.214;16.378;2022-12-18T05:15:33;34.33;;;18.95;;
76167;SDS011;64927;48.214;16.378;2022-12-18T05:17:59;37.90;;;19.93;;
76167;SDS011;64927;48.214;16.378;2022-12-18T05:20:29;36.70;;;20.33;;
76167;SDS011;64927;48.214;16.378;2022-12-18T05:22:55;38.10;;;20.08;;
76167;SDS011;64927;48.214;16.378;2022-12-18T05:25:24;41.42;;;21.85;;
76167;SDS011;64927;48.214;16.378;2022-12-18T05:27:51;37.83;;;19.50;;
76167;SDS011;64927;48.214;16.378;2022-12-18T05:30:17;42.13;;;20.50;;
76167;SDS011;64927;48.214;16.378;2022-12-18T05:32:43;38.47;;;20.40;;
76167;SDS011;64927;48.214;16.378;2022-12-18T05:35:12;36.20;;;19.58;;
76167;SDS011;64927;48.214;16.378;2022-12-18T05:37:46;40.63;;;21.15;;
76167;SDS011;64927;48.214;16.378;2022-12-18T05:40:11;33.17;;;19.42;;
76167;SDS011;64927;48.214;16.378;2022-12-18T05:42:37;41.67;;;21.75;;
76167;SDS011;64927;48.214;16.378;2022-12-18T05:45:03;43.03;;;22.55;;
76167;SDS011;64927;48.214;16.378;2022-12-18T05:47:29;45.05;;;23.30;;
76167;SDS011;64927;48.214;16.378;2022-12-18T05:49:55;38.20;;;22.48;;
76167;SDS011;64927;48.214;16.378;2022-12-18T05:52:23;43.95;;;24.40;;
76167;SDS011;64927;48.214;16.378;2022-12-18T05:54:48;44.90;;;22.92;;
76167;SDS011;64927;48.214;16.378;2022-12-18T05:57:16;43.00;;;23.20;;
76167;SDS011;64927;48.214;16.378;2022-12-18T05:59:42;36.72;;;20.52;;
76167;SDS011;64927;48.214;16.378;2022-12-18T06:02:08;38.83;;;21.42;;
76167;SDS011;64927;48.214;16.378;2022-12-18T06:04:34;41.30;;;22.95;;
76167;SDS011;64927;48.214;16.378;2022-12-18T06:06:59;39.95;;;21.85;;
76167;SDS011;64927;48.214;16.378;2022-12-18T06:09:28;36.92;;;21.45;;
76167;SDS011;64927;48.214;16.378;2022-12-18T06:11:54;37.63;;;22.63;;
76167;SDS011;64927;48.214;16.378;2022-12-18T06:14:22;41.22;;;23.42;;
76167;SDS011;64927;48.214;16.378;2022-12-18T06:16:49;42.58;;;22.67;;
76167;SDS011;64927;48.214;16.378;2022-12-18T06:19:17;39.97;;;21.23;;
76167;SDS011;64927;48.214;16.378;2022-12-18T06:21:44;38.70;;;20.90;;
76167;SDS011;64927;48.214;16.378;2022-12-18T06:24:10;43.28;;;22.65;;
76167;SDS011;64927;48.214;16.378;2022-12-18T06:26:37;42.70;;;21.15;;
76167;SDS011;64927;48.214;16.378;2022-12-18T06:29:05;44.33;;;21.40;;
76167;SDS011;64927;48.214;16.378;2022-12-18T06:31:31;42.13;;;21.27;;
76167;SDS011;64927;48.214;16.378;2022-12-18T06:33:57;45.65;;;23.25;;
76167;SDS011;64927;48.214;16.378;2022-12-18T06:36:22;44.58;;;22.75;;
76167;SDS011;64927;48.214;16.378;2022-12-18T06:38:48;54.80;;;23.00;;
76167;SDS011;64927;48.214;16.378;2022-12-18T06:41:15;47.67;;;25.27;;
76167;SDS011;64927;48.214;16.378;2022-12-18T06:43:43;57.35;;;27.70;;
76167;SDS011;64927;48.214;16.378;2022-12-18T06:46:09;49.78;;;27.67;;
76167;SDS011;64927;48.214;16.378;2022-12-18T06:48:35;52.85;;;26.85;;
76167;SDS011;64927;48.214;16.378;2022-12-18T06:51:01;45.78;;;25.20;;
76167;SDS011;64927;48.214;16.378;2022-12-18T06:53:29;47.75;;;24.80;;
76167;SDS011;64927;48.214;16.378;2022-12-18T06:56:00;47.80;;;25.83;;
76167;SDS011;64927;48.214;16.378;2022-12-18T06:58:31;47.35;;;25.13;;
76167;SDS011;64927;48.214;16.378;2022-12-18T07:01:03;46.72;;;24.58;;
76167;SDS011;64927;48.214;16.378;2022-12-18T07:03:32;42.97;;;25.02;;
76167;SDS011;64927;48.214;16.378;2022-12-18T07:05:58;47.47;;;25.15;;
76167;SDS011;64927;48.214;16.378;2022-12-18T07:08:24;50.33;;;26.10;;
76167;SDS011;64927;48.214;16.378;2022-12-18T07:10:50;42.03;;;22.13;;
76167;SDS011;64927;48.214;16.378;2022-12-18T07:13:16;41.55;;;23.27;;
76167;SDS011;64927;48.214;16.378;2022-12-18T07:15:44;43.55;;;22.85;;
76167;SDS011;64927;48.214;16.378;2022-12-18T07:18:10;44.53;;;24.05;;
76167;SDS011;64927;48.214;16.378;2022-12-18T07:20:38;41.13;;;23.77;;
76167;SDS011;64927;48.214;16.378;2022-12-18T07:23:04;40.42;;;24.13;;
76167;SDS011;64927;48.214;16.378;2022-12-18T07:25:30;41.65;;;22.60;;
76167;SDS011;64927;48.214;16.378;2022-12-18T07:27:59;44.22;;;22.73;;
76167;SDS011;64927;48.214;16.378;2022-12-18T07:30:27;37.35;;;21.45;;
76167;SDS011;64927;48.214;16.378;2022-12-18T07:32:55;42.63;;;24.20;;
76167;SDS011;64927;48.214;16.378;2022-12-18T07:35:21;37.70;;;21.45;;
76167;SDS011;64927;48.214;16.378;2022-12-18T07:37:46;42.15;;;22.77;;
76167;SDS011;64927;48.214;16.378;2022-12-18T07:40:12;43.17;;;23.27;;
76167;SDS011;64927;48.214;16.378;2022-12-18T07:42:40;35.95;;;21.85;;
76167;SDS011;64927;48.214;16.378;2022-12-18T07:45:06;43.40;;;23.27;;
76167;SDS011;64927;48.214;16.378;2022-12-18T07:47:33;43.72;;;23.98;;
76167;SDS011;64927;48.214;16.378;2022-12-18T07:50:00;41.30;;;23.67;;
76167;SDS011;64927;48.214;16.378;2022-12-18T07:52:26;45.72;;;24.10;;
76167;SDS011;64927;48.214;16.378;2022-12-18T07:54:51;41.05;;;23.40;;
76167;SDS011;64927;48.214;16.378;2022-12-18T07:57:17;38.55;;;22.85;;
76167;SDS011;64927;48.214;16.378;2022-12-18T07:59:43;44.72;;;25.13;;
76167;SDS011;64927;48.214;16.378;2022-12-18T08:02:08;38.65;;;23.25;;
76167;SDS011;64927;48.214;16.378;2022-12-18T08:04:34;43.50;;;24.65;;
76167;SDS011;64927;48.214;16.378;2022-12-18T08:06:59;46.33;;;25.92;;
76167;SDS011;64927;48.214;16.378;2022-12-18T08:09:25;39.20;;;21.85;;
76167;SDS011;64927;48.214;16.378;2022-12-18T08:11:51;47.78;;;24.90;;
76167;SDS011;64927;48.214;16.378;2022-12-18T08:14:16;44.63;;;24.60;;
76167;SDS011;64927;48.214;16.378;2022-12-18T08:16:42;40.63;;;23.77;;
76167;SDS011;64927;48.214;16.378;2022-12-18T08:19:08;41.75;;;23.33;;
76167;SDS011;64927;48.214;16.378;2022-12-18T08:21:33;47.13;;;23.55;;
76167;SDS011;64927;48.214;16.378;2022-12-18T08:23:59;46.63;;;25.70;;
76167;SDS011;64927;48.214;16.378;2022-12-18T08:26:27;45.97;;;26.05;;
76167;SDS011;64927;48.214;16.378;2022-12-18T08:28:54;46.22;;;25.42;;
76167;SDS011;64927;48.214;16.378;2022-12-18T08:31:23;47.85;;;26.40;;
76167;SDS011;64927;48.214;16.378;2022-12-18T08:33:53;44.17;;;23.83;;
76167;SDS011;64927;48.214;16.378;2022-12-18T08:36:20;49.28;;;26.23;;
76167;SDS011;64927;48.214;16.378;2022-12-18T08:38:46;42.45;;;24.35;;
76167;SDS011;64927;48.214;16.378;2022-12-18T08:41:15;45.75;;;26.10;;
76167;SDS011;64927;48.214;16.378;2022-12-18T08:43:44;51.35;;;28.17;;
76167;SDS011;64927;48.214;16.378;2022-12-18T08:46:32;42.47;;;23.67;;
76167;SDS011;64927;48.214;16.378;2022-12-18T08:49:00;42.33;;;25.35;;
76167;SDS011;64927;48.214;16.378;2022-12-18T08:51:26;46.03;;;25.40;;
76167;SDS011;64927;48.214;16.378;2022-12-18T08:53:51;43.75;;;25.15;;
76167;SDS011;64927;48.214;16.378;2022-12-18T08:56:17;48.75;;;25.40;;
76167;SDS011;64927;48.214;16.378;2022-12-18T08:58:43;46.05;;;26.10;;
76167;SDS011;64927;48.214;16.378;2022-12-18T09:01:12;46.15;;;26.30;;
76167;SDS011;64927;48.214;16.378;2022-12-18T09:03:38;47.92;;;25.17;;
76167;SDS011;64927;48.214;16.378;2022-12-18T09:06:07;49.65;;;25.42;;
76167;SDS011;64927;48.214;16.378;2022-12-18T09:08:33;49.00;;;25.52;;
76167;SDS011;64927;48.214;16.378;2022-12-18T09:10:59;48.67;;;25.40;;
76167;SDS011;64927;48.214;16.378;2022-12-18T09:13:27;49.92;;;26.48;;
76167;SDS011;64927;48.214;16.378;2022-12-18T09:15:53;45.17;;;26.13;;
76167;SDS011;64927;48.214;16.378;2022-12-18T09:18:20;50.33;;;27.67;;
76167;SDS011;64927;48.214;16.378;2022-12-18T09:20:48;51.30;;;27.27;;
76167;SDS011;64927;48.214;16.378;2022-12-18T09:23:15;47.58;;;27.50;;
76167;SDS011;64927;48.214;16.378;2022-12-18T09:25:41;45.08;;;24.88;;
76167;SDS011;64927;48.214;16.378;2022-12-18T09:28:09;46.67;;;26.75;;
76167;SDS011;64927;48.214;16.378;2022-12-18T09:30:46;42.45;;;24.42;;
76167;SDS011;64927;48.214;16.378;2022-12-18T09:33:15;46.92;;;25.83;;
76167;SDS011;64927;48.214;16.378;2022-12-18T09:35:42;50.67;;;26.15;;
76167;SDS011;64927;48.214;16.378;2022-12-18T09:38:18;49.50;;;26.52;;
76167;SDS011;64927;48.214;16.378;2022-12-18T09:45:55;46.45;;;26.30;;
76167;SDS011;64927;48.214;16.378;2022-12-18T09:48:31;50.78;;;26.95;;
76167;SDS011;64927;48.214;16.378;2022-12-18T09:51:22;48.63;;;25.40;;
76167;SDS011;64927;48.214;16.378;2022-12-18T09:53:52;44.85;;;25.50;;
76167;SDS011;64927;48.214;16.378;2022-12-18T09:56:22;47.20;;;26.40;;
76167;SDS011;64927;48.214;16.378;2022-12-18T09:58:58;51.72;;;27.55;;
76167;SDS011;64927;48.214;16.378;2022-12-18T10:01:25;48.40;;;27.50;;
76167;SDS011;64927;48.214;16.378;2022-12-18T10:03:52;50.63;;;27.55;;
76167;SDS011;64927;48.214;16.378;2022-12-18T10:19:47;44.45;;;24.52;;
76167;SDS011;64927;48.214;16.378;2022-12-18T10:25:15;46.33;;;25.67;;
76167;SDS011;64927;48.214;16.378;2022-12-18T10:27:45;43.63;;;23.35;;
76167;SDS011;64927;48.214;16.378;2022-12-18T10:30:14;54.38;;;25.30;;
76167;SDS011;64927;48.214;16.378;2022-12-18T10:32:42;48.65;;;22.63;;
76167;SDS011;64927;48.214;16.378;2022-12-18T10:35:12;41.03;;;23.02;;
76167;SDS011;64927;48.214;16.378;2022-12-18T10:40:28;44.55;;;23.52;;
76167;SDS011;64927;48.214;16.378;2022-12-18T10:43:04;46.40;;;25.75;;
76167;SDS011;64927;48.214;16.378;2022-12-18T10:45:38;46.10;;;24.85;;
76167;SDS011;64927;48.214;16.378;2022-12-18T10:48:19;42.40;;;24.05;;
76167;SDS011;64927;48.214;16.378;2022-12-18T10:50:47;48.58;;;28.23;;
76167;SDS011;64927;48.214;16.378;2022-12-18T10:53:19;44.42;;;24.25;;
76167;SDS011;64927;48.214;16.378;2022-12-18T10:55:50;35.15;;;19.75;;
76167;SDS011;64927;48.214;16.378;2022-12-18T10:58:32;47.63;;;24.17;;
76167;SDS011;64927;48.214;16.378;2022-12-18T11:01:16;44.20;;;24.10;;
76167;SDS011;64927;48.214;16.378;2022-12-18T11:04:08;48.83;;;23.67;;
76167;SDS011;64927;48.214;16.378;2022-12-18T11:06:34;45.13;;;24.65;;
76167;SDS011;64927;48.214;16.378;2022-12-18T11:09:20;50.35;;;24.48;;
76167;SDS011;64927;48.214;16.378;2022-12-18T11:11:51;51.20;;;25.23;;
76167;SDS011;64927;48.214;16.378;2022-12-18T11:14:22;45.03;;;25.13;;
76167;SDS011;64927;48.214;16.378;2022-12-18T11:16:59;48.90;;;25.27;;
76167;SDS011;64927;48.214;16.378;2022-12-18T11:19:30;46.03;;;25.13;;
76167;SDS011;64927;48.214;16.378;2022-12-18T11:21:57;51.03;;;25.58;;
76167;SDS011;64927;48.214;16.378;2022-12-18T11:27:00;46.80;;;25.50;;
76167;SDS011;64927;48.214;16.378;2022-12-18T11:29:38;44.20;;;24.73;;
76167;SDS011;64927;48.214;16.378;2022-12-18T11:32:24;48.67;;;26.27;;
76167;SDS011;64927;48.214;16.378;2022-12-18T11:35:48;49.70;;;25.35;;
76167;SDS011;64927;48.214;16.378;2022-12-18T11:38:29;49.20;;;25.83;;
76167;SDS011;64927;48.214;16.378;2022-12-18T11:43:58;47.10;;;26.30;;
76167;SDS011;64927;48.214;16.378;2022-12-18T11:46:34;48.55;;;27.00;;
76167;SDS011;64927;48.214;16.378;2022-12-18T11:54:39;50.70;;;25.13;;
76167;SDS011;64927;48.214;16.378;2022-12-18T11:57:10;49.70;;;26.00;;
76167;SDS011;64927;48.214;16.378;2022-12-18T12:00:12;43.83;;;24.80;;
76167;SDS011;64927;48.214;16.378;2022-12-18T12:25:53;45.92;;;25.85;;
76167;SDS011;64927;48.214;16.378;2022-12-18T12:33:28;48.45;;;25.33;;
76167;SDS011;64927;48.214;16.378;2022-12-18T12:36:16;52.55;;;27.80;;
76167;SDS011;64927;48.214;16.378;2022-12-18T12:38:55;54.55;;;29.02;;
76167;SDS011;64927;48.214;16.378;2022-12-18T12:41:26;50.67;;;27.15;;
76167;SDS011;64927;48.214;16.378;2022-12-18T12:47:20;53.45;;;24.77;;
76167;SDS011;64927;48.214;16.378;2022-12-18T12:49:52;52.67;;;25.60;;
76167;SDS011;64927;48.214;16.378;2022-12-18T12:52:28;54.53;;;29.02;;
76167;SDS011;64927;48.214;16.378;2022-12-18T12:55:04;49.85;;;26.67;;
76167;SDS011;64927;48.214;16.378;2022-12-18T12:57:34;51.78;;;27.55;;
76167;SDS011;64927;48.214;16.378;2022-12-18T13:00:17;53.55;;;28.10;;
76167;SDS011;64927;48.214;16.378;2022-12-18T13:08:05;57.13;;;25.27;;
76167;SDS011;64927;48.214;16.378;2022-12-18T13:10:38;52.22;;;25.83;;
76167;SDS011;64927;48.214;16.378;2022-12-18T13:13:06;60.28;;;26.98;;
76167;SDS011;64927;48.214;16.378;2022-12-18T13:15:47;51.00;;;27.55;;
76167;SDS011;64927;48.214;16.378;2022-12-18T13:18:22;48.22;;;25.23;;
76167;SDS011;64927;48.214;16.378;2022-12-18T13:20:51;51.58;;;26.58;;
76167;SDS011;64927;48.214;16.378;2022-12-18T13:34:16;53.10;;;27.35;;
76167;SDS011;64927;48.214;16.378;2022-12-18T13:36:44;51.95;;;27.63;;
76167;SDS011;64927;48.214;16.378;2022-12-18T13:41:43;54.40;;;27.35;;
76167;SDS011;64927;48.214;16.378;2022-12-18T13:44:33;51.80;;;27.27;;
76167;SDS011;64927;48.214;16.378;2022-12-18T13:47:05;58.38;;;27.38;;
76167;SDS011;64927;48.214;16.378;2022-12-18T13:49:51;55.15;;;29.67;;
76167;SDS011;64927;48.214;16.378;2022-12-18T13:52:24;53.65;;;28.55;;
76167;SDS011;64927;48.214;16.378;2022-12-18T13:54:59;56.60;;;28.70;;
76167;SDS011;64927;48.214;16.378;2022-12-18T14:02:47;59.20;;;28.48;;
76167;SDS011;64927;48.214;16.378;2022-12-18T14:05:26;58.33;;;27.15;;
76167;SDS011;64927;48.214;16.378;2022-12-18T14:08:03;62.47;;;31.52;;
76167;SDS011;64927;48.214;16.378;2022-12-18T14:10:35;59.10;;;31.20;;
76167;SDS011;64927;48.214;16.378;2022-12-18T14:13:08;60.67;;;28.40;;
76167;SDS011;64927;48.214;16.378;2022-12-18T14:15:38;66.65;;;31.77;;
76167;SDS011;64927;48.214;16.378;2022-12-18T14:20:47;63.75;;;34.17;;
76167;SDS011;64927;48.214;16.378;2022-12-18T14:23:30;70.43;;;36.83;;
76167;SDS011;64927;48.214;16.378;2022-12-18T14:25:56;70.82;;;33.28;;
76167;SDS011;64927;48.214;16.378;2022-12-18T14:28:22;67.90;;;34.35;;
76167;SDS011;64927;48.214;16.378;2022-12-18T14:30:48;75.57;;;36.50;;
76167;SDS011;64927;48.214;16.378;2022-12-18T14:33:15;72.40;;;34.65;;
76167;SDS011;64927;48.214;16.378;2022-12-18T14:35:55;57.33;;;27.42;;
76167;SDS011;64927;48.214;16.378;2022-12-18T14:40:55;71.35;;;33.75;;
76167;SDS011;64927;48.214;16.378;2022-12-18T14:43:25;64.43;;;32.55;;
76167;SDS011;64927;48.214;16.378;2022-12-18T14:45:56;65.60;;;30.33;;
76167;SDS011;64927;48.214;16.378;2022-12-18T14:56:34;71.75;;;31.73;;
76167;SDS011;64927;48.214;16.378;2022-12-18T14:59:12;69.93;;;35.22;;
76167;SDS011;64927;48.214;16.378;2022-12-18T15:02:34;77.85;;;33.45;;
76167;SDS011;64927;48.214;16.378;2022-12-18T15:04:44;83.53;;;39.35;;
76167;SDS011;64927;48.214;16.378;2022-12-18T15:07:14;77.45;;;35.17;;
76167;SDS011;64927;48.214;16.378;2022-12-18T15:09:44;77.47;;;37.58;;
76167;SDS011;64927;48.214;16.378;2022-12-18T15:13:17;80.82;;;37.28;;
76167;SDS011;64927;48.214;16.378;2022-12-18T15:20:44;76.63;;;36.80;;
76167;SDS011;64927;48.214;16.378;2022-12-18T15:23:20;69.82;;;34.33;;
76167;SDS011;64927;48.214;16.378;2022-12-18T15:25:49;66.93;;;32.40;;
76167;SDS011;64927;48.214;16.378;2022-12-18T15:28:34;60.55;;;28.73;;
76167;SDS011;64927;48.214;16.378;2022-12-18T15:31:33;56.58;;;25.42;;
76167;SDS011;64927;48.214;16.378;2022-12-18T15:34:10;65.63;;;31.55;;
76167;SDS011;64927;48.214;16.378;2022-12-18T15:36:45;57.42;;;27.55;;
76167;SDS011;64927;48.214;16.378;2022-12-18T15:39:13;64.95;;;30.15;;
76167;SDS011;64927;48.214;16.378;2022-12-18T15:41:41;66.25;;;30.67;;
76167;SDS011;64927;48.214;16.378;2022-12-18T15:44:28;58.58;;;29.73;;
76167;SDS011;64927;48.214;16.378;2022-12-18T15:46:53;64.55;;;31.67;;
76167;SDS011;64927;48.214;16.378;2022-12-18T15:49:19;66.78;;;32.53;;
76167;SDS011;64927;48.214;16.378;2022-12-18T15:51:49;74.10;;;35.25;;
76167;SDS011;64927;48.214;16.378;2022-12-18T15:54:18;66.03;;;33.05;;
76167;SDS011;64927;48.214;16.378;2022-12-18T15:57:09;63.55;;;33.30;;
76167;SDS011;64927;48.214;16.378;2022-12-18T15:59:48;65.28;;;33.15;;
76167;SDS011;64927;48.214;16.378;2022-12-18T16:02:21;67.97;;;33.40;;
76167;SDS011;64927;48.214;16.378;2022-12-18T16:04:48;67.35;;;34.30;;
76167;SDS011;64927;48.214;16.378;2022-12-18T16:07:15;71.55;;;34.08;;
76167;SDS011;64927;48.214;16.378;2022-12-18T16:09:41;71.35;;;36.22;;
76167;SDS011;64927;48.214;16.378;2022-12-18T16:12:20;70.40;;;34.40;;
76167;SDS011;64927;48.214;16.378;2022-12-18T16:14:50;66.75;;;34.65;;
76167;SDS011;64927;48.214;16.378;2022-12-18T16:17:18;76.72;;;38.38;;
76167;SDS011;64927;48.214;16.378;2022-12-18T16:19:45;79.60;;;35.53;;
76167;SDS011;64927;48.214;16.378;2022-12-18T16:22:15;68.95;;;35.50;;
76167;SDS011;64927;48.214;16.378;2022-12-18T16:24:46;57.40;;;27.98;;
76167;SDS011;64927;48.214;16.378;2022-12-18T16:27:15;68.68;;;35.45;;
76167;SDS011;64927;48.214;16.378;2022-12-18T16:29:41;65.82;;;35.72;;
76167;SDS011;64927;48.214;16.378;2022-12-18T16:32:08;69.20;;;36.97;;
76167;SDS011;64927;48.214;16.378;2022-12-18T16:34:39;67.72;;;33.80;;
76167;SDS011;64927;48.214;16.378;2022-12-18T16:37:07;65.85;;;32.33;;
76167;SDS011;64927;48.214;16.378;2022-12-18T16:39:34;61.85;;;30.25;;
76167;SDS011;64927;48.214;16.378;2022-12-18T16:42:06;68.78;;;32.85;;
76167;SDS011;64927;48.214;16.378;2022-12-18T16:44:42;62.63;;;30.25;;
76167;SDS011;64927;48.214;16.378;2022-12-18T16:47:09;59.83;;;31.60;;
76167;SDS011;64927;48.214;16.378;2022-12-18T16:49:38;58.75;;;29.55;;